Corley, West Virginia
Current Conditions -  °F | °C
As of 8:35 PM on Wednesday 26 Nov 2014 (Local Time) from KW22 Reporting Station
Light Snow Light Snow  
Wind Chill: 27°   Ceiling: 100
Heat Index: 32°   Visibility: 1.5mi
Dew Point: 32°   Wind: 5mph
Humidity: 100%   Direction: 250°WSW
Pressure: 29.99"   Gusts: NA
Location:  38.744°N, 80.5968°W
Report Text: KW22 270135Z AUTO 25004KT 1 1/2SM -SN OVC001 00/00 A2999 RMK AO2
Loading
Personal Weather Stations






























Interactive Weather Map New forecast layout! Learn more

10-Day Weather Forecast

Advertisements
Track Severe Weather on mobile